sensor_id;sensor_type;location;lat;lon;timestamp;P1;durP1;ratioP1;P2;durP2;ratioP2
61523;SDS011;47393;38.758;-9.164;2023-08-08T00:01:42;12.05;;;6.03;;
61523;SDS011;47393;38.758;-9.164;2023-08-08T00:03:43;26.20;;;6.22;;
61523;SDS011;47393;38.758;-9.164;2023-08-08T00:05:44;35.10;;;6.93;;
61523;SDS011;47393;38.758;-9.164;2023-08-08T00:07:44;21.85;;;6.35;;
61523;SDS011;47393;38.758;-9.164;2023-08-08T00:09:45;12.13;;;6.40;;
61523;SDS011;47393;38.758;-9.164;2023-08-08T00:11:46;20.73;;;6.78;;
61523;SDS011;47393;38.758;-9.164;2023-08-08T00:13:48;13.60;;;5.78;;
61523;SDS011;47393;38.758;-9.164;2023-08-08T00:15:49;20.73;;;6.05;;
61523;SDS011;47393;38.758;-9.164;2023-08-08T00:17:49;21.55;;;6.55;;
61523;SDS011;47393;38.758;-9.164;2023-08-08T00:19:50;16.27;;;6.00;;
61523;SDS011;47393;38.758;-9.164;2023-08-08T00:21:50;12.07;;;5.95;;
61523;SDS011;47393;38.758;-9.164;2023-08-08T00:23:52;15.85;;;5.90;;
61523;SDS011;47393;38.758;-9.164;2023-08-08T00:25:54;25.85;;;6.90;;
61523;SDS011;47393;38.758;-9.164;2023-08-08T00:27:56;25.70;;;6.20;;
61523;SDS011;47393;38.758;-9.164;2023-08-08T00:29:57;12.43;;;5.85;;
61523;SDS011;47393;38.758;-9.164;2023-08-08T00:31:57;11.00;;;6.40;;
61523;SDS011;47393;38.758;-9.164;2023-08-08T00:33:58;14.23;;;6.05;;
61523;SDS011;47393;38.758;-9.164;2023-08-08T00:36:01;13.70;;;5.78;;
61523;SDS011;47393;38.758;-9.164;2023-08-08T00:38:04;17.55;;;5.55;;
61523;SDS011;47393;38.758;-9.164;2023-08-08T00:40:05;13.10;;;5.38;;
61523;SDS011;47393;38.758;-9.164;2023-08-08T00:42:07;11.82;;;5.22;;
61523;SDS011;47393;38.758;-9.164;2023-08-08T00:44:08;19.25;;;5.68;;
61523;SDS011;47393;38.758;-9.164;2023-08-08T00:46:10;20.17;;;5.55;;
61523;SDS011;47393;38.758;-9.164;2023-08-08T00:48:11;10.90;;;5.25;;
61523;SDS011;47393;38.758;-9.164;2023-08-08T00:50:11;14.30;;;5.93;;
61523;SDS011;47393;38.758;-9.164;2023-08-08T00:52:14;15.80;;;5.95;;
61523;SDS011;47393;38.758;-9.164;2023-08-08T00:54:18;14.15;;;5.38;;
61523;SDS011;47393;38.758;-9.164;2023-08-08T00:56:18;18.90;;;5.32;;
61523;SDS011;47393;38.758;-9.164;2023-08-08T00:58:20;20.02;;;5.35;;
61523;SDS011;47393;38.758;-9.164;2023-08-08T01:00:21;11.73;;;5.60;;
61523;SDS011;47393;38.758;-9.164;2023-08-08T01:02:23;13.25;;;4.57;;
61523;SDS011;47393;38.758;-9.164;2023-08-08T01:04:25;15.57;;;5.72;;
61523;SDS011;47393;38.758;-9.164;2023-08-08T01:06:36;38.80;;;5.60;;
61523;SDS011;47393;38.758;-9.164;2023-08-08T01:08:39;10.15;;;5.30;;
61523;SDS011;47393;38.758;-9.164;2023-08-08T01:10:42;15.38;;;6.28;;
61523;SDS011;47393;38.758;-9.164;2023-08-08T01:12:50;9.57;;;5.15;;
61523;SDS011;47393;38.758;-9.164;2023-08-08T01:14:52;9.88;;;4.97;;
61523;SDS011;47393;38.758;-9.164;2023-08-08T01:16:55;9.43;;;5.38;;
61523;SDS011;47393;38.758;-9.164;2023-08-08T01:19:00;18.92;;;6.30;;
61523;SDS011;47393;38.758;-9.164;2023-08-08T01:21:01;17.70;;;5.70;;
61523;SDS011;47393;38.758;-9.164;2023-08-08T01:25:06;24.75;;;6.63;;
61523;SDS011;47393;38.758;-9.164;2023-08-08T01:27:08;15.27;;;5.88;;
61523;SDS011;47393;38.758;-9.164;2023-08-08T01:29:10;22.20;;;6.10;;
61523;SDS011;47393;38.758;-9.164;2023-08-08T01:31:11;20.98;;;6.38;;
61523;SDS011;47393;38.758;-9.164;2023-08-08T01:33:12;17.98;;;6.07;;
61523;SDS011;47393;38.758;-9.164;2023-08-08T01:35:13;16.00;;;6.32;;
61523;SDS011;47393;38.758;-9.164;2023-08-08T01:37:17;25.13;;;6.30;;
61523;SDS011;47393;38.758;-9.164;2023-08-08T01:39:21;22.73;;;6.13;;
61523;SDS011;47393;38.758;-9.164;2023-08-08T01:41:26;20.33;;;6.32;;
61523;SDS011;47393;38.758;-9.164;2023-08-08T01:43:27;13.55;;;6.47;;
61523;SDS011;47393;38.758;-9.164;2023-08-08T01:45:28;18.27;;;6.63;;
61523;SDS011;47393;38.758;-9.164;2023-08-08T01:47:30;17.92;;;6.65;;
61523;SDS011;47393;38.758;-9.164;2023-08-08T01:49:31;14.43;;;6.40;;
61523;SDS011;47393;38.758;-9.164;2023-08-08T01:51:32;19.80;;;6.18;;
61523;SDS011;47393;38.758;-9.164;2023-08-08T01:53:32;14.07;;;6.75;;
61523;SDS011;47393;38.758;-9.164;2023-08-08T01:55:33;14.40;;;6.65;;
61523;SDS011;47393;38.758;-9.164;2023-08-08T01:57:34;27.08;;;7.18;;
61523;SDS011;47393;38.758;-9.164;2023-08-08T01:59:35;19.42;;;6.68;;
61523;SDS011;47393;38.758;-9.164;2023-08-08T02:01:36;18.00;;;6.40;;
61523;SDS011;47393;38.758;-9.164;2023-08-08T02:03:38;19.67;;;6.65;;
61523;SDS011;47393;38.758;-9.164;2023-08-08T02:05:38;16.90;;;7.07;;
61523;SDS011;47393;38.758;-9.164;2023-08-08T02:07:39;23.38;;;7.20;;
61523;SDS011;47393;38.758;-9.164;2023-08-08T02:09:50;22.65;;;7.03;;
61523;SDS011;47393;38.758;-9.164;2023-08-08T02:11:52;22.60;;;7.32;;
61523;SDS011;47393;38.758;-9.164;2023-08-08T02:13:53;21.92;;;6.10;;
61523;SDS011;47393;38.758;-9.164;2023-08-08T02:15:53;15.23;;;6.30;;
61523;SDS011;47393;38.758;-9.164;2023-08-08T02:17:55;23.77;;;6.97;;
61523;SDS011;47393;38.758;-9.164;2023-08-08T02:19:57;21.40;;;6.85;;
61523;SDS011;47393;38.758;-9.164;2023-08-08T02:21:57;14.07;;;6.30;;
61523;SDS011;47393;38.758;-9.164;2023-08-08T02:23:58;18.92;;;7.05;;
61523;SDS011;47393;38.758;-9.164;2023-08-08T02:25:59;17.15;;;6.38;;
61523;SDS011;47393;38.758;-9.164;2023-08-08T02:27:59;12.38;;;6.25;;
61523;SDS011;47393;38.758;-9.164;2023-08-08T02:30:00;21.17;;;7.32;;
61523;SDS011;47393;38.758;-9.164;2023-08-08T02:32:01;19.90;;;7.47;;
61523;SDS011;47393;38.758;-9.164;2023-08-08T02:34:02;14.95;;;6.40;;
61523;SDS011;47393;38.758;-9.164;2023-08-08T02:36:03;18.77;;;7.50;;
61523;SDS011;47393;38.758;-9.164;2023-08-08T02:38:04;19.92;;;7.88;;
61523;SDS011;47393;38.758;-9.164;2023-08-08T02:40:05;19.52;;;7.45;;
61523;SDS011;47393;38.758;-9.164;2023-08-08T02:42:07;24.88;;;7.85;;
61523;SDS011;47393;38.758;-9.164;2023-08-08T02:44:07;21.55;;;7.47;;
61523;SDS011;47393;38.758;-9.164;2023-08-08T02:46:08;20.02;;;7.40;;
61523;SDS011;47393;38.758;-9.164;2023-08-08T02:48:09;21.85;;;7.38;;
61523;SDS011;47393;38.758;-9.164;2023-08-08T02:50:11;17.02;;;6.93;;
61523;SDS011;47393;38.758;-9.164;2023-08-08T02:52:12;25.70;;;7.30;;
61523;SDS011;47393;38.758;-9.164;2023-08-08T02:54:13;19.77;;;6.85;;
61523;SDS011;47393;38.758;-9.164;2023-08-08T02:56:16;28.55;;;7.60;;
61523;SDS011;47393;38.758;-9.164;2023-08-08T02:58:17;21.63;;;7.00;;
61523;SDS011;47393;38.758;-9.164;2023-08-08T03:00:21;16.98;;;6.28;;
61523;SDS011;47393;38.758;-9.164;2023-08-08T03:02:26;19.40;;;6.63;;
61523;SDS011;47393;38.758;-9.164;2023-08-08T03:04:27;45.78;;;8.15;;
61523;SDS011;47393;38.758;-9.164;2023-08-08T03:06:28;30.77;;;7.43;;
61523;SDS011;47393;38.758;-9.164;2023-08-08T03:08:30;18.90;;;6.95;;
61523;SDS011;47393;38.758;-9.164;2023-08-08T03:10:32;27.92;;;6.97;;
61523;SDS011;47393;38.758;-9.164;2023-08-08T03:12:32;26.50;;;7.82;;
61523;SDS011;47393;38.758;-9.164;2023-08-08T03:14:34;27.00;;;6.82;;
61523;SDS011;47393;38.758;-9.164;2023-08-08T03:16:36;24.90;;;7.35;;
61523;SDS011;47393;38.758;-9.164;2023-08-08T03:18:41;30.38;;;8.30;;
61523;SDS011;47393;38.758;-9.164;2023-08-08T03:20:42;25.17;;;7.00;;
61523;SDS011;47393;38.758;-9.164;2023-08-08T03:22:46;24.27;;;6.97;;
61523;SDS011;47393;38.758;-9.164;2023-08-08T03:24:51;28.10;;;6.72;;
61523;SDS011;47393;38.758;-9.164;2023-08-08T03:26:52;28.52;;;6.80;;
61523;SDS011;47393;38.758;-9.164;2023-08-08T03:28:58;48.83;;;7.05;;
61523;SDS011;47393;38.758;-9.164;2023-08-08T03:31:09;31.20;;;7.63;;
61523;SDS011;47393;38.758;-9.164;2023-08-08T03:33:15;29.38;;;7.00;;
61523;SDS011;47393;38.758;-9.164;2023-08-08T03:35:16;30.55;;;7.43;;
61523;SDS011;47393;38.758;-9.164;2023-08-08T03:37:18;32.92;;;7.57;;
61523;SDS011;47393;38.758;-9.164;2023-08-08T03:39:21;34.97;;;7.78;;
61523;SDS011;47393;38.758;-9.164;2023-08-08T03:41:22;30.60;;;7.88;;
61523;SDS011;47393;38.758;-9.164;2023-08-08T03:43:22;19.10;;;6.82;;
61523;SDS011;47393;38.758;-9.164;2023-08-08T03:45:27;26.90;;;7.50;;
61523;SDS011;47393;38.758;-9.164;2023-08-08T03:47:28;26.77;;;6.88;;
61523;SDS011;47393;38.758;-9.164;2023-08-08T03:49:35;30.73;;;6.95;;
61523;SDS011;47393;38.758;-9.164;2023-08-08T03:51:39;26.48;;;6.80;;
61523;SDS011;47393;38.758;-9.164;2023-08-08T03:55:41;31.00;;;7.63;;
61523;SDS011;47393;38.758;-9.164;2023-08-08T03:57:41;25.38;;;7.35;;
61523;SDS011;47393;38.758;-9.164;2023-08-08T03:59:48;26.15;;;7.25;;
61523;SDS011;47393;38.758;-9.164;2023-08-08T04:01:49;32.78;;;7.05;;
61523;SDS011;47393;38.758;-9.164;2023-08-08T04:03:51;31.85;;;7.85;;
61523;SDS011;47393;38.758;-9.164;2023-08-08T04:05:51;27.52;;;8.05;;
61523;SDS011;47393;38.758;-9.164;2023-08-08T04:07:52;22.98;;;7.35;;
61523;SDS011;47393;38.758;-9.164;2023-08-08T04:09:56;28.77;;;6.93;;
61523;SDS011;47393;38.758;-9.164;2023-08-08T04:12:04;29.42;;;6.93;;
61523;SDS011;47393;38.758;-9.164;2023-08-08T04:14:08;29.00;;;7.20;;
61523;SDS011;47393;38.758;-9.164;2023-08-08T04:16:08;33.20;;;7.10;;
61523;SDS011;47393;38.758;-9.164;2023-08-08T04:18:10;33.95;;;7.10;;
61523;SDS011;47393;38.758;-9.164;2023-08-08T04:20:11;28.23;;;7.55;;
61523;SDS011;47393;38.758;-9.164;2023-08-08T04:22:14;30.38;;;7.60;;
61523;SDS011;47393;38.758;-9.164;2023-08-08T04:24:16;30.27;;;7.55;;
61523;SDS011;47393;38.758;-9.164;2023-08-08T04:26:16;34.85;;;7.15;;
61523;SDS011;47393;38.758;-9.164;2023-08-08T04:28:20;43.40;;;8.05;;
61523;SDS011;47393;38.758;-9.164;2023-08-08T04:30:21;26.73;;;7.45;;
61523;SDS011;47393;38.758;-9.164;2023-08-08T04:32:22;29.20;;;7.38;;
61523;SDS011;47393;38.758;-9.164;2023-08-08T04:34:24;30.48;;;8.50;;
61523;SDS011;47393;38.758;-9.164;2023-08-08T04:36:25;34.15;;;7.57;;
61523;SDS011;47393;38.758;-9.164;2023-08-08T04:38:26;35.25;;;7.90;;
61523;SDS011;47393;38.758;-9.164;2023-08-08T04:40:27;28.70;;;7.15;;
61523;SDS011;47393;38.758;-9.164;2023-08-08T04:42:28;25.38;;;7.05;;
61523;SDS011;47393;38.758;-9.164;2023-08-08T04:44:29;31.20;;;7.07;;
61523;SDS011;47393;38.758;-9.164;2023-08-08T04:46:30;33.03;;;7.85;;
61523;SDS011;47393;38.758;-9.164;2023-08-08T04:48:30;28.50;;;8.25;;
61523;SDS011;47393;38.758;-9.164;2023-08-08T04:50:32;27.75;;;8.50;;
61523;SDS011;47393;38.758;-9.164;2023-08-08T04:52:33;37.72;;;7.82;;
61523;SDS011;47393;38.758;-9.164;2023-08-08T04:54:35;24.00;;;6.80;;
61523;SDS011;47393;38.758;-9.164;2023-08-08T04:56:39;29.55;;;8.30;;
61523;SDS011;47393;38.758;-9.164;2023-08-08T04:58:40;25.48;;;7.65;;
61523;SDS011;47393;38.758;-9.164;2023-08-08T05:00:46;25.65;;;7.82;;
61523;SDS011;47393;38.758;-9.164;2023-08-08T05:02:52;30.42;;;7.68;;
61523;SDS011;47393;38.758;-9.164;2023-08-08T05:04:54;30.98;;;8.00;;
61523;SDS011;47393;38.758;-9.164;2023-08-08T05:06:55;38.08;;;8.50;;
61523;SDS011;47393;38.758;-9.164;2023-08-08T05:08:58;38.97;;;8.52;;
61523;SDS011;47393;38.758;-9.164;2023-08-08T05:11:02;32.97;;;8.63;;
61523;SDS011;47393;38.758;-9.164;2023-08-08T05:13:03;25.95;;;7.53;;
61523;SDS011;47393;38.758;-9.164;2023-08-08T05:15:07;36.40;;;8.93;;
61523;SDS011;47393;38.758;-9.164;2023-08-08T05:17:09;42.05;;;8.30;;
61523;SDS011;47393;38.758;-9.164;2023-08-08T05:19:10;33.28;;;7.63;;
61523;SDS011;47393;38.758;-9.164;2023-08-08T05:21:11;32.03;;;7.55;;
61523;SDS011;47393;38.758;-9.164;2023-08-08T05:23:12;30.13;;;8.10;;
61523;SDS011;47393;38.758;-9.164;2023-08-08T05:25:13;29.45;;;7.78;;
61523;SDS011;47393;38.758;-9.164;2023-08-08T05:27:14;31.63;;;8.27;;
61523;SDS011;47393;38.758;-9.164;2023-08-08T05:29:15;29.67;;;8.27;;
61523;SDS011;47393;38.758;-9.164;2023-08-08T05:31:16;36.78;;;9.15;;
61523;SDS011;47393;38.758;-9.164;2023-08-08T05:33:16;39.00;;;9.70;;
61523;SDS011;47393;38.758;-9.164;2023-08-08T05:35:17;33.92;;;7.90;;
61523;SDS011;47393;38.758;-9.164;2023-08-08T05:37:22;33.97;;;8.85;;
61523;SDS011;47393;38.758;-9.164;2023-08-08T05:39:26;29.20;;;8.27;;
61523;SDS011;47393;38.758;-9.164;2023-08-08T05:41:29;36.05;;;7.65;;
61523;SDS011;47393;38.758;-9.164;2023-08-08T05:43:31;32.60;;;9.05;;
61523;SDS011;47393;38.758;-9.164;2023-08-08T05:45:35;26.55;;;8.27;;
61523;SDS011;47393;38.758;-9.164;2023-08-08T05:47:36;37.00;;;8.05;;
61523;SDS011;47393;38.758;-9.164;2023-08-08T05:49:46;44.40;;;10.15;;
61523;SDS011;47393;38.758;-9.164;2023-08-08T05:51:47;27.83;;;8.75;;
61523;SDS011;47393;38.758;-9.164;2023-08-08T05:53:48;35.97;;;9.80;;
61523;SDS011;47393;38.758;-9.164;2023-08-08T05:55:49;31.17;;;8.48;;
61523;SDS011;47393;38.758;-9.164;2023-08-08T05:57:50;28.48;;;7.65;;
61523;SDS011;47393;38.758;-9.164;2023-08-08T05:59:51;38.13;;;9.02;;
61523;SDS011;47393;38.758;-9.164;2023-08-08T06:01:52;37.17;;;8.25;;
61523;SDS011;47393;38.758;-9.164;2023-08-08T06:03:53;33.03;;;9.23;;
61523;SDS011;47393;38.758;-9.164;2023-08-08T06:05:54;38.35;;;8.15;;
61523;SDS011;47393;38.758;-9.164;2023-08-08T06:08:02;44.45;;;9.07;;
61523;SDS011;47393;38.758;-9.164;2023-08-08T06:10:07;33.75;;;9.25;;
61523;SDS011;47393;38.758;-9.164;2023-08-08T06:12:11;32.83;;;9.25;;
61523;SDS011;47393;38.758;-9.164;2023-08-08T06:14:15;31.90;;;8.70;;
61523;SDS011;47393;38.758;-9.164;2023-08-08T06:16:17;42.40;;;8.77;;
61523;SDS011;47393;38.758;-9.164;2023-08-08T06:18:19;37.92;;;9.50;;
61523;SDS011;47393;38.758;-9.164;2023-08-08T06:20:23;38.80;;;9.80;;
61523;SDS011;47393;38.758;-9.164;2023-08-08T06:22:24;43.63;;;10.50;;
61523;SDS011;47393;38.758;-9.164;2023-08-08T06:24:25;40.42;;;9.32;;
61523;SDS011;47393;38.758;-9.164;2023-08-08T06:26:26;41.00;;;10.82;;
61523;SDS011;47393;38.758;-9.164;2023-08-08T06:28:27;34.97;;;9.57;;
61523;SDS011;47393;38.758;-9.164;2023-08-08T06:30:28;30.77;;;8.95;;
61523;SDS011;47393;38.758;-9.164;2023-08-08T06:32:29;34.33;;;9.98;;
61523;SDS011;47393;38.758;-9.164;2023-08-08T06:34:35;36.75;;;10.07;;
61523;SDS011;47393;38.758;-9.164;2023-08-08T06:36:36;38.40;;;9.93;;
61523;SDS011;47393;38.758;-9.164;2023-08-08T06:38:37;42.25;;;8.68;;
61523;SDS011;47393;38.758;-9.164;2023-08-08T06:40:39;38.35;;;9.05;;
61523;SDS011;47393;38.758;-9.164;2023-08-08T06:42:42;38.17;;;10.25;;
61523;SDS011;47393;38.758;-9.164;2023-08-08T06:44:43;41.25;;;9.38;;
61523;SDS011;47393;38.758;-9.164;2023-08-08T06:46:45;33.83;;;8.60;;
61523;SDS011;47393;38.758;-9.164;2023-08-08T06:48:46;31.88;;;9.18;;
61523;SDS011;47393;38.758;-9.164;2023-08-08T06:50:49;35.85;;;8.80;;
61523;SDS011;47393;38.758;-9.164;2023-08-08T06:52:50;24.45;;;7.75;;
61523;SDS011;47393;38.758;-9.164;2023-08-08T06:54:51;38.00;;;8.95;;
61523;SDS011;47393;38.758;-9.164;2023-08-08T06:56:52;30.50;;;8.10;;
61523;SDS011;47393;38.758;-9.164;2023-08-08T06:58:53;30.35;;;8.30;;
61523;SDS011;47393;38.758;-9.164;2023-08-08T07:00:54;43.97;;;8.57;;
61523;SDS011;47393;38.758;-9.164;2023-08-08T07:02:55;42.53;;;9.52;;
61523;SDS011;47393;38.758;-9.164;2023-08-08T07:04:59;36.35;;;8.68;;
61523;SDS011;47393;38.758;-9.164;2023-08-08T07:07:01;37.95;;;8.32;;
61523;SDS011;47393;38.758;-9.164;2023-08-08T07:09:07;38.05;;;9.02;;
61523;SDS011;47393;38.758;-9.164;2023-08-08T07:11:11;33.22;;;8.73;;
61523;SDS011;47393;38.758;-9.164;2023-08-08T07:13:12;25.25;;;8.25;;
61523;SDS011;47393;38.758;-9.164;2023-08-08T07:15:16;32.75;;;8.80;;
61523;SDS011;47393;38.758;-9.164;2023-08-08T07:19:24;29.40;;;8.80;;
61523;SDS011;47393;38.758;-9.164;2023-08-08T07:21:28;33.03;;;8.65;;
61523;SDS011;47393;38.758;-9.164;2023-08-08T07:23:32;33.10;;;8.52;;
61523;SDS011;47393;38.758;-9.164;2023-08-08T07:25:35;29.65;;;8.07;;
61523;SDS011;47393;38.758;-9.164;2023-08-08T07:27:35;26.20;;;8.15;;
61523;SDS011;47393;38.758;-9.164;2023-08-08T07:29:37;29.45;;;9.52;;
61523;SDS011;47393;38.758;-9.164;2023-08-08T07:31:39;29.02;;;8.23;;
61523;SDS011;47393;38.758;-9.164;2023-08-08T07:33:40;20.73;;;6.80;;
61523;SDS011;47393;38.758;-9.164;2023-08-08T07:35:51;32.72;;;8.80;;
61523;SDS011;47393;38.758;-9.164;2023-08-08T07:37:53;26.75;;;7.22;;
61523;SDS011;47393;38.758;-9.164;2023-08-08T07:39:56;34.05;;;8.02;;
61523;SDS011;47393;38.758;-9.164;2023-08-08T07:42:01;30.63;;;7.45;;
61523;SDS011;47393;38.758;-9.164;2023-08-08T07:44:11;26.55;;;7.60;;
61523;SDS011;47393;38.758;-9.164;2023-08-08T07:46:12;25.95;;;6.60;;
61523;SDS011;47393;38.758;-9.164;2023-08-08T07:48:17;27.70;;;7.07;;
61523;SDS011;47393;38.758;-9.164;2023-08-08T07:50:25;30.83;;;7.00;;
61523;SDS011;47393;38.758;-9.164;2023-08-08T07:52:27;26.38;;;7.03;;
61523;SDS011;47393;38.758;-9.164;2023-08-08T07:54:40;27.20;;;6.75;;
61523;SDS011;47393;38.758;-9.164;2023-08-08T07:56:52;23.58;;;6.43;;
61523;SDS011;47393;38.758;-9.164;2023-08-08T07:59:02;20.38;;;6.40;;
61523;SDS011;47393;38.758;-9.164;2023-08-08T08:01:09;25.00;;;6.93;;
61523;SDS011;47393;38.758;-9.164;2023-08-08T08:03:15;25.30;;;6.70;;
61523;SDS011;47393;38.758;-9.164;2023-08-08T08:05:17;26.00;;;6.45;;
61523;SDS011;47393;38.758;-9.164;2023-08-08T08:07:28;20.92;;;5.93;;
61523;SDS011;47393;38.758;-9.164;2023-08-08T08:09:32;22.10;;;6.75;;
61523;SDS011;47393;38.758;-9.164;2023-08-08T08:11:37;26.80;;;6.78;;
61523;SDS011;47393;38.758;-9.164;2023-08-08T08:13:49;18.23;;;5.65;;
61523;SDS011;47393;38.758;-9.164;2023-08-08T08:15:57;17.92;;;6.10;;
61523;SDS011;47393;38.758;-9.164;2023-08-08T08:20:17;17.55;;;6.20;;
61523;SDS011;47393;38.758;-9.164;2023-08-08T08:22:26;36.20;;;6.85;;
61523;SDS011;47393;38.758;-9.164;2023-08-08T08:24:34;28.83;;;6.45;;
61523;SDS011;47393;38.758;-9.164;2023-08-08T08:26:39;26.80;;;5.60;;
61523;SDS011;47393;38.758;-9.164;2023-08-08T08:28:44;25.17;;;6.15;;
61523;SDS011;47393;38.758;-9.164;2023-08-08T08:30:48;22.77;;;6.40;;
61523;SDS011;47393;38.758;-9.164;2023-08-08T08:32:50;28.02;;;5.88;;
61523;SDS011;47393;38.758;-9.164;2023-08-08T08:35:12;28.13;;;6.78;;
61523;SDS011;47393;38.758;-9.164;2023-08-08T08:37:18;30.52;;;6.38;;
61523;SDS011;47393;38.758;-9.164;2023-08-08T08:39:20;46.07;;;6.63;;
61523;SDS011;47393;38.758;-9.164;2023-08-08T08:41:42;28.85;;;6.53;;
61523;SDS011;47393;38.758;-9.164;2023-08-08T08:43:46;22.00;;;6.03;;
61523;SDS011;47393;38.758;-9.164;2023-08-08T08:45:53;18.45;;;5.93;;
61523;SDS011;47393;38.758;-9.164;2023-08-08T08:47:55;27.35;;;6.03;;
61523;SDS011;47393;38.758;-9.164;2023-08-08T08:49:57;29.60;;;6.53;;
61523;SDS011;47393;38.758;-9.164;2023-08-08T08:52:12;21.25;;;6.03;;
61523;SDS011;47393;38.758;-9.164;2023-08-08T08:54:25;18.17;;;5.95;;
61523;SDS011;47393;38.758;-9.164;2023-08-08T08:56:26;25.30;;;6.55;;
61523;SDS011;47393;38.758;-9.164;2023-08-08T08:58:40;28.73;;;6.60;;
61523;SDS011;47393;38.758;-9.164;2023-08-08T09:00:43;21.90;;;6.25;;
61523;SDS011;47393;38.758;-9.164;2023-08-08T09:02:45;31.75;;;7.38;;
61523;SDS011;47393;38.758;-9.164;2023-08-08T09:04:53;24.77;;;6.05;;
61523;SDS011;47393;38.758;-9.164;2023-08-08T09:06:55;23.73;;;6.55;;
61523;SDS011;47393;38.758;-9.164;2023-08-08T09:08:56;28.52;;;6.20;;
61523;SDS011;47393;38.758;-9.164;2023-08-08T09:10:57;22.02;;;6.97;;
61523;SDS011;47393;38.758;-9.164;2023-08-08T09:15:02;25.77;;;7.22;;
61523;SDS011;47393;38.758;-9.164;2023-08-08T09:17:09;23.95;;;6.53;;
61523;SDS011;47393;38.758;-9.164;2023-08-08T09:19:12;23.80;;;6.85;;
61523;SDS011;47393;38.758;-9.164;2023-08-08T09:21:18;23.85;;;6.88;;
61523;SDS011;47393;38.758;-9.164;2023-08-08T09:23:20;27.88;;;7.18;;
61523;SDS011;47393;38.758;-9.164;2023-08-08T09:25:22;26.98;;;7.20;;
61523;SDS011;47393;38.758;-9.164;2023-08-08T09:27:24;16.90;;;6.40;;
61523;SDS011;47393;38.758;-9.164;2023-08-08T09:29:27;18.47;;;6.40;;
61523;SDS011;47393;38.758;-9.164;2023-08-08T09:31:29;20.58;;;6.22;;
61523;SDS011;47393;38.758;-9.164;2023-08-08T09:33:31;19.10;;;6.50;;
61523;SDS011;47393;38.758;-9.164;2023-08-08T09:35:33;29.65;;;7.00;;
61523;SDS011;47393;38.758;-9.164;2023-08-08T09:37:35;25.58;;;6.47;;
61523;SDS011;47393;38.758;-9.164;2023-08-08T09:39:37;22.35;;;6.88;;
61523;SDS011;47393;38.758;-9.164;2023-08-08T09:41:39;23.40;;;6.53;;
61523;SDS011;47393;38.758;-9.164;2023-08-08T09:43:42;14.05;;;5.85;;
61523;SDS011;47393;38.758;-9.164;2023-08-08T09:45:44;18.25;;;6.03;;
61523;SDS011;47393;38.758;-9.164;2023-08-08T09:47:45;14.40;;;4.90;;
61523;SDS011;47393;38.758;-9.164;2023-08-08T09:49:46;17.42;;;4.75;;
61523;SDS011;47393;38.758;-9.164;2023-08-08T09:51:51;9.00;;;5.00;;
61523;SDS011;47393;38.758;-9.164;2023-08-08T09:53:52;11.13;;;4.32;;
61523;SDS011;47393;38.758;-9.164;2023-08-08T09:55:57;9.40;;;4.13;;
61523;SDS011;47393;38.758;-9.164;2023-08-08T09:57:58;12.82;;;4.38;;
61523;SDS011;47393;38.758;-9.164;2023-08-08T10:00:00;10.07;;;4.18;;
61523;SDS011;47393;38.758;-9.164;2023-08-08T10:02:02;13.82;;;4.30;;
61523;SDS011;47393;38.758;-9.164;2023-08-08T10:04:08;8.02;;;3.95;;
61523;SDS011;47393;38.758;-9.164;2023-08-08T10:06:15;17.75;;;4.38;;
61523;SDS011;47393;38.758;-9.164;2023-08-08T10:08:17;6.65;;;3.60;;
61523;SDS011;47393;38.758;-9.164;2023-08-08T10:10:18;7.40;;;4.07;;
61523;SDS011;47393;38.758;-9.164;2023-08-08T10:12:23;12.63;;;4.18;;
61523;SDS011;47393;38.758;-9.164;2023-08-08T10:14:31;7.13;;;3.92;;
61523;SDS011;47393;38.758;-9.164;2023-08-08T10:16:34;10.95;;;4.07;;
61523;SDS011;47393;38.758;-9.164;2023-08-08T10:18:37;11.75;;;4.35;;
61523;SDS011;47393;38.758;-9.164;2023-08-08T10:20:38;10.10;;;4.18;;
61523;SDS011;47393;38.758;-9.164;2023-08-08T10:22:44;12.15;;;5.20;;
61523;SDS011;47393;38.758;-9.164;2023-08-08T10:24:50;14.90;;;4.90;;
61523;SDS011;47393;38.758;-9.164;2023-08-08T10:28:53;11.38;;;5.03;;
61523;SDS011;47393;38.758;-9.164;2023-08-08T10:30:56;17.52;;;5.38;;
61523;SDS011;47393;38.758;-9.164;2023-08-08T10:33:01;19.05;;;5.13;;
61523;SDS011;47393;38.758;-9.164;2023-08-08T10:35:05;10.73;;;4.53;;
61523;SDS011;47393;38.758;-9.164;2023-08-08T10:37:10;12.73;;;5.35;;
61523;SDS011;47393;38.758;-9.164;2023-08-08T10:39:15;9.18;;;4.97;;
61523;SDS011;47393;38.758;-9.164;2023-08-08T10:41:19;9.85;;;4.80;;
61523;SDS011;47393;38.758;-9.164;2023-08-08T10:43:24;9.90;;;4.93;;
61523;SDS011;47393;38.758;-9.164;2023-08-08T10:45:29;12.77;;;5.40;;
61523;SDS011;47393;38.758;-9.164;2023-08-08T10:49:31;15.88;;;6.00;;
61523;SDS011;47393;38.758;-9.164;2023-08-08T10:51:35;14.52;;;5.30;;
61523;SDS011;47393;38.758;-9.164;2023-08-08T10:53:37;23.08;;;6.25;;
61523;SDS011;47393;38.758;-9.164;2023-08-08T10:55:38;14.50;;;5.38;;
61523;SDS011;47393;38.758;-9.164;2023-08-08T10:57:39;15.23;;;6.05;;
61523;SDS011;47393;38.758;-9.164;2023-08-08T10:59:40;22.58;;;6.38;;
61523;SDS011;47393;38.758;-9.164;2023-08-08T11:01:47;20.65;;;6.25;;
61523;SDS011;47393;38.758;-9.164;2023-08-08T11:03:49;15.82;;;6.20;;
61523;SDS011;47393;38.758;-9.164;2023-08-08T11:05:51;20.08;;;6.55;;
61523;SDS011;47393;38.758;-9.164;2023-08-08T11:07:53;28.23;;;6.63;;
61523;SDS011;47393;38.758;-9.164;2023-08-08T11:09:54;14.48;;;6.35;;
61523;SDS011;47393;38.758;-9.164;2023-08-08T11:11:57;20.35;;;6.55;;
61523;SDS011;47393;38.758;-9.164;2023-08-08T11:13:59;24.33;;;7.60;;
61523;SDS011;47393;38.758;-9.164;2023-08-08T11:16:00;25.25;;;7.00;;
61523;SDS011;47393;38.758;-9.164;2023-08-08T11:18:03;25.60;;;7.53;;
61523;SDS011;47393;38.758;-9.164;2023-08-08T11:20:05;29.17;;;8.48;;
61523;SDS011;47393;38.758;-9.164;2023-08-08T11:22:09;27.83;;;8.00;;
61523;SDS011;47393;38.758;-9.164;2023-08-08T11:24:12;24.42;;;7.78;;
61523;SDS011;47393;38.758;-9.164;2023-08-08T11:26:17;21.52;;;8.55;;
61523;SDS011;47393;38.758;-9.164;2023-08-08T11:28:19;22.23;;;8.20;;
61523;SDS011;47393;38.758;-9.164;2023-08-08T11:30:21;16.20;;;7.38;;
61523;SDS011;47393;38.758;-9.164;2023-08-08T11:32:22;24.45;;;8.38;;
61523;SDS011;47393;38.758;-9.164;2023-08-08T11:34:25;19.60;;;8.10;;
61523;SDS011;47393;38.758;-9.164;2023-08-08T11:36:30;19.47;;;9.50;;
61523;SDS011;47393;38.758;-9.164;2023-08-08T11:38:32;24.02;;;9.98;;
61523;SDS011;47393;38.758;-9.164;2023-08-08T11:40:33;24.90;;;9.77;;
61523;SDS011;47393;38.758;-9.164;2023-08-08T11:42:34;35.03;;;9.93;;
61523;SDS011;47393;38.758;-9.164;2023-08-08T11:44:35;27.50;;;10.30;;
61523;SDS011;47393;38.758;-9.164;2023-08-08T11:46:45;24.00;;;8.15;;
61523;SDS011;47393;38.758;-9.164;2023-08-08T11:48:47;21.10;;;8.82;;
61523;SDS011;47393;38.758;-9.164;2023-08-08T11:50:48;27.20;;;9.00;;
61523;SDS011;47393;38.758;-9.164;2023-08-08T11:52:50;27.17;;;9.50;;
61523;SDS011;47393;38.758;-9.164;2023-08-08T11:54:51;24.15;;;8.88;;
61523;SDS011;47393;38.758;-9.164;2023-08-08T11:56:52;20.95;;;8.82;;
61523;SDS011;47393;38.758;-9.164;2023-08-08T11:58:56;20.85;;;9.60;;
61523;SDS011;47393;38.758;-9.164;2023-08-08T12:00:57;25.05;;;9.35;;
61523;SDS011;47393;38.758;-9.164;2023-08-08T12:03:00;25.85;;;9.10;;
61523;SDS011;47393;38.758;-9.164;2023-08-08T12:05:05;30.45;;;9.80;;
61523;SDS011;47393;38.758;-9.164;2023-08-08T12:07:06;28.10;;;8.98;;
61523;SDS011;47393;38.758;-9.164;2023-08-08T12:09:08;21.80;;;8.90;;
61523;SDS011;47393;38.758;-9.164;2023-08-08T12:11:12;25.58;;;8.63;;
61523;SDS011;47393;38.758;-9.164;2023-08-08T12:13:13;20.30;;;8.60;;